sensor_id;sensor_type;location;lat;lon;timestamp;P1;durP1;ratioP1;P2;durP2;ratioP2
82170;SDS011;71755;48.038;14.346;2023-08-30T00:00:57;8.57;;;2.30;;
82170;SDS011;71755;48.038;14.346;2023-08-30T00:03:23;4.78;;;1.90;;
82170;SDS011;71755;48.038;14.346;2023-08-30T00:05:49;4.18;;;1.88;;
82170;SDS011;71755;48.038;14.346;2023-08-30T00:08:15;3.92;;;1.73;;
82170;SDS011;71755;48.038;14.346;2023-08-30T00:10:45;5.63;;;2.28;;
82170;SDS011;71755;48.038;14.346;2023-08-30T00:13:12;5.10;;;1.52;;
82170;SDS011;71755;48.038;14.346;2023-08-30T00:15:38;4.30;;;1.90;;
82170;SDS011;71755;48.038;14.346;2023-08-30T00:18:05;2.75;;;1.70;;
82170;SDS011;71755;48.038;14.346;2023-08-30T00:20:31;1.55;;;1.17;;
82170;SDS011;71755;48.038;14.346;2023-08-30T00:22:57;1.77;;;1.15;;
82170;SDS011;71755;48.038;14.346;2023-08-30T00:25:23;3.00;;;1.52;;
82170;SDS011;71755;48.038;14.346;2023-08-30T00:27:50;3.42;;;1.52;;
82170;SDS011;71755;48.038;14.346;2023-08-30T00:30:16;1.70;;;1.23;;
82170;SDS011;71755;48.038;14.346;2023-08-30T00:32:42;1.65;;;1.02;;
82170;SDS011;71755;48.038;14.346;2023-08-30T00:35:10;3.78;;;1.30;;
82170;SDS011;71755;48.038;14.346;2023-08-30T00:37:36;1.17;;;0.93;;
82170;SDS011;71755;48.038;14.346;2023-08-30T00:40:02;2.53;;;1.15;;
82170;SDS011;71755;48.038;14.346;2023-08-30T00:42:28;2.85;;;1.85;;
82170;SDS011;71755;48.038;14.346;2023-08-30T00:44:55;2.15;;;0.98;;
82170;SDS011;71755;48.038;14.346;2023-08-30T00:47:21;2.05;;;1.60;;
82170;SDS011;71755;48.038;14.346;2023-08-30T00:49:47;2.10;;;1.40;;
82170;SDS011;71755;48.038;14.346;2023-08-30T00:52:14;1.70;;;1.17;;
82170;SDS011;71755;48.038;14.346;2023-08-30T00:54:41;2.17;;;1.08;;
82170;SDS011;71755;48.038;14.346;2023-08-30T00:57:07;6.05;;;1.48;;
82170;SDS011;71755;48.038;14.346;2023-08-30T00:59:33;1.90;;;0.88;;
82170;SDS011;71755;48.038;14.346;2023-08-30T01:01:59;2.33;;;1.48;;
82170;SDS011;71755;48.038;14.346;2023-08-30T01:04:27;2.33;;;0.98;;
82170;SDS011;71755;48.038;14.346;2023-08-30T01:06:53;1.42;;;0.85;;
82170;SDS011;71755;48.038;14.346;2023-08-30T01:09:19;3.25;;;1.13;;
82170;SDS011;71755;48.038;14.346;2023-08-30T01:11:48;1.63;;;0.60;;
82170;SDS011;71755;48.038;14.346;2023-08-30T01:14:45;1.88;;;1.08;;
82170;SDS011;71755;48.038;14.346;2023-08-30T01:17:13;2.33;;;0.93;;
82170;SDS011;71755;48.038;14.346;2023-08-30T01:19:45;2.38;;;1.27;;
82170;SDS011;71755;48.038;14.346;2023-08-30T01:27:48;1.42;;;0.80;;
82170;SDS011;71755;48.038;14.346;2023-08-30T01:30:16;1.92;;;0.88;;
82170;SDS011;71755;48.038;14.346;2023-08-30T01:32:44;2.45;;;1.20;;
82170;SDS011;71755;48.038;14.346;2023-08-30T01:35:11;1.50;;;0.98;;
82170;SDS011;71755;48.038;14.346;2023-08-30T01:37:44;2.15;;;0.88;;
82170;SDS011;71755;48.038;14.346;2023-08-30T01:40:11;1.88;;;0.77;;
82170;SDS011;71755;48.038;14.346;2023-08-30T01:42:39;2.70;;;1.17;;
82170;SDS011;71755;48.038;14.346;2023-08-30T01:45:08;1.77;;;0.60;;
82170;SDS011;71755;48.038;14.346;2023-08-30T01:47:38;2.70;;;1.02;;
82170;SDS011;71755;48.038;14.346;2023-08-30T01:50:07;0.95;;;0.55;;
82170;SDS011;71755;48.038;14.346;2023-08-30T01:52:34;3.10;;;0.85;;
82170;SDS011;71755;48.038;14.346;2023-08-30T01:55:02;1.70;;;0.90;;
82170;SDS011;71755;48.038;14.346;2023-08-30T01:57:28;0.93;;;0.30;;
82170;SDS011;71755;48.038;14.346;2023-08-30T01:59:55;3.90;;;1.17;;
82170;SDS011;71755;48.038;14.346;2023-08-30T02:02:20;1.35;;;0.70;;
82170;SDS011;71755;48.038;14.346;2023-08-30T02:04:46;1.25;;;0.70;;
82170;SDS011;71755;48.038;14.346;2023-08-30T02:07:16;2.05;;;0.90;;
82170;SDS011;71755;48.038;14.346;2023-08-30T02:09:56;0.98;;;0.55;;
82170;SDS011;71755;48.038;14.346;2023-08-30T02:12:28;1.13;;;0.75;;
82170;SDS011;71755;48.038;14.346;2023-08-30T02:15:28;0.73;;;0.45;;
82170;SDS011;71755;48.038;14.346;2023-08-30T02:17:57;0.65;;;0.55;;
82170;SDS011;71755;48.038;14.346;2023-08-30T02:20:23;5.90;;;2.50;;
82170;SDS011;71755;48.038;14.346;2023-08-30T02:22:49;0.43;;;0.43;;
82170;SDS011;71755;48.038;14.346;2023-08-30T02:25:15;12.20;;;0.90;;
82170;SDS011;71755;48.038;14.346;2023-08-30T02:27:41;1.08;;;0.65;;
82170;SDS011;71755;48.038;14.346;2023-08-30T02:30:08;1.23;;;1.10;;
82170;SDS011;71755;48.038;14.346;2023-08-30T02:32:34;0.70;;;0.70;;
82170;SDS011;71755;48.038;14.346;2023-08-30T02:35:01;1.02;;;0.60;;
82170;SDS011;71755;48.038;14.346;2023-08-30T02:37:28;1.30;;;0.95;;
82170;SDS011;71755;48.038;14.346;2023-08-30T02:39:54;1.30;;;1.00;;
82170;SDS011;71755;48.038;14.346;2023-08-30T02:42:20;1.75;;;1.08;;
82170;SDS011;71755;48.038;14.346;2023-08-30T02:44:45;2.28;;;0.93;;
82170;SDS011;71755;48.038;14.346;2023-08-30T02:47:11;3.08;;;1.15;;
82170;SDS011;71755;48.038;14.346;2023-08-30T02:49:37;2.53;;;1.10;;
82170;SDS011;71755;48.038;14.346;2023-08-30T02:52:04;2.72;;;1.30;;
82170;SDS011;71755;48.038;14.346;2023-08-30T02:54:30;0.98;;;0.73;;
82170;SDS011;71755;48.038;14.346;2023-08-30T02:56:56;2.30;;;1.23;;
82170;SDS011;71755;48.038;14.346;2023-08-30T02:59:22;2.33;;;1.52;;
82170;SDS011;71755;48.038;14.346;2023-08-30T03:01:48;3.42;;;1.63;;
82170;SDS011;71755;48.038;14.346;2023-08-30T03:04:14;10.35;;;1.90;;
82170;SDS011;71755;48.038;14.346;2023-08-30T03:06:39;2.50;;;1.50;;
82170;SDS011;71755;48.038;14.346;2023-08-30T03:09:06;2.08;;;1.20;;
82170;SDS011;71755;48.038;14.346;2023-08-30T03:11:33;2.50;;;1.30;;
82170;SDS011;71755;48.038;14.346;2023-08-30T03:13:59;3.53;;;2.03;;
82170;SDS011;71755;48.038;14.346;2023-08-30T03:16:24;1.88;;;1.35;;
82170;SDS011;71755;48.038;14.346;2023-08-30T03:18:50;2.83;;;2.53;;
82170;SDS011;71755;48.038;14.346;2023-08-30T03:21:16;5.47;;;2.42;;
82170;SDS011;71755;48.038;14.346;2023-08-30T03:23:42;4.20;;;2.22;;
82170;SDS011;71755;48.038;14.346;2023-08-30T03:26:09;3.50;;;2.03;;
82170;SDS011;71755;48.038;14.346;2023-08-30T03:31:13;3.88;;;1.83;;
82170;SDS011;71755;48.038;14.346;2023-08-30T03:33:44;2.33;;;1.42;;
82170;SDS011;71755;48.038;14.346;2023-08-30T03:36:10;4.80;;;1.95;;
82170;SDS011;71755;48.038;14.346;2023-08-30T03:38:38;6.78;;;2.92;;
82170;SDS011;71755;48.038;14.346;2023-08-30T03:41:05;3.90;;;2.20;;
82170;SDS011;71755;48.038;14.346;2023-08-30T03:43:31;6.30;;;2.22;;
82170;SDS011;71755;48.038;14.346;2023-08-30T03:45:59;4.60;;;1.92;;
82170;SDS011;71755;48.038;14.346;2023-08-30T03:48:29;5.15;;;2.17;;
82170;SDS011;71755;48.038;14.346;2023-08-30T03:50:56;6.05;;;2.70;;
82170;SDS011;71755;48.038;14.346;2023-08-30T03:53:23;4.72;;;2.65;;
82170;SDS011;71755;48.038;14.346;2023-08-30T03:55:50;5.40;;;2.10;;
82170;SDS011;71755;48.038;14.346;2023-08-30T03:58:20;4.00;;;1.95;;
82170;SDS011;71755;48.038;14.346;2023-08-30T04:00:45;5.93;;;2.63;;
82170;SDS011;71755;48.038;14.346;2023-08-30T04:03:12;5.03;;;2.65;;
82170;SDS011;71755;48.038;14.346;2023-08-30T04:05:40;4.70;;;2.05;;
82170;SDS011;71755;48.038;14.346;2023-08-30T04:08:06;4.43;;;2.17;;
82170;SDS011;71755;48.038;14.346;2023-08-30T04:10:37;5.47;;;2.75;;
82170;SDS011;71755;48.038;14.346;2023-08-30T04:13:04;10.23;;;4.23;;
82170;SDS011;71755;48.038;14.346;2023-08-30T04:15:34;2.92;;;1.98;;
82170;SDS011;71755;48.038;14.346;2023-08-30T04:18:01;3.58;;;1.90;;
82170;SDS011;71755;48.038;14.346;2023-08-30T04:20:29;6.38;;;2.78;;
82170;SDS011;71755;48.038;14.346;2023-08-30T04:22:55;7.22;;;3.30;;
82170;SDS011;71755;48.038;14.346;2023-08-30T04:25:22;6.40;;;3.15;;
82170;SDS011;71755;48.038;14.346;2023-08-30T04:27:49;4.53;;;2.75;;
82170;SDS011;71755;48.038;14.346;2023-08-30T04:30:16;3.53;;;1.90;;
82170;SDS011;71755;48.038;14.346;2023-08-30T04:32:42;3.80;;;2.20;;
82170;SDS011;71755;48.038;14.346;2023-08-30T04:35:08;6.50;;;2.55;;
82170;SDS011;71755;48.038;14.346;2023-08-30T04:37:35;5.47;;;2.58;;
82170;SDS011;71755;48.038;14.346;2023-08-30T04:40:04;5.72;;;2.47;;
82170;SDS011;71755;48.038;14.346;2023-08-30T04:42:34;3.17;;;1.98;;
82170;SDS011;71755;48.038;14.346;2023-08-30T04:45:04;5.82;;;2.78;;
82170;SDS011;71755;48.038;14.346;2023-08-30T04:47:30;3.58;;;2.70;;
82170;SDS011;71755;48.038;14.346;2023-08-30T04:49:57;6.75;;;3.47;;
82170;SDS011;71755;48.038;14.346;2023-08-30T04:52:23;5.60;;;1.95;;
82170;SDS011;71755;48.038;14.346;2023-08-30T04:54:49;5.82;;;2.85;;
82170;SDS011;71755;48.038;14.346;2023-08-30T04:57:16;5.97;;;2.22;;
82170;SDS011;71755;48.038;14.346;2023-08-30T04:59:43;3.83;;;2.45;;
82170;SDS011;71755;48.038;14.346;2023-08-30T05:02:09;4.80;;;2.20;;
82170;SDS011;71755;48.038;14.346;2023-08-30T05:04:36;4.40;;;2.28;;
82170;SDS011;71755;48.038;14.346;2023-08-30T05:07:03;6.43;;;2.90;;
82170;SDS011;71755;48.038;14.346;2023-08-30T05:09:30;4.05;;;2.20;;
82170;SDS011;71755;48.038;14.346;2023-08-30T05:11:56;5.28;;;3.05;;
82170;SDS011;71755;48.038;14.346;2023-08-30T05:14:21;4.13;;;2.83;;
82170;SDS011;71755;48.038;14.346;2023-08-30T05:16:49;7.03;;;2.60;;
82170;SDS011;71755;48.038;14.346;2023-08-30T05:19:15;5.22;;;2.45;;
82170;SDS011;71755;48.038;14.346;2023-08-30T05:21:44;3.97;;;2.17;;
82170;SDS011;71755;48.038;14.346;2023-08-30T05:24:11;7.20;;;2.63;;
82170;SDS011;71755;48.038;14.346;2023-08-30T05:26:37;5.47;;;2.92;;
82170;SDS011;71755;48.038;14.346;2023-08-30T05:29:03;6.00;;;3.70;;
82170;SDS011;71755;48.038;14.346;2023-08-30T05:31:29;4.97;;;2.83;;
82170;SDS011;71755;48.038;14.346;2023-08-30T05:33:55;7.65;;;3.08;;
82170;SDS011;71755;48.038;14.346;2023-08-30T05:36:21;7.88;;;2.55;;
82170;SDS011;71755;48.038;14.346;2023-08-30T05:38:47;4.05;;;2.45;;
82170;SDS011;71755;48.038;14.346;2023-08-30T05:41:13;4.13;;;2.45;;
82170;SDS011;71755;48.038;14.346;2023-08-30T05:43:39;8.45;;;2.50;;
82170;SDS011;71755;48.038;14.346;2023-08-30T05:46:05;5.03;;;2.97;;
82170;SDS011;71755;48.038;14.346;2023-08-30T05:48:30;6.70;;;2.95;;
82170;SDS011;71755;48.038;14.346;2023-08-30T05:50:59;6.68;;;3.20;;
82170;SDS011;71755;48.038;14.346;2023-08-30T05:53:25;5.43;;;2.65;;
82170;SDS011;71755;48.038;14.346;2023-08-30T05:55:51;4.85;;;2.75;;
82170;SDS011;71755;48.038;14.346;2023-08-30T05:58:17;5.40;;;2.60;;
82170;SDS011;71755;48.038;14.346;2023-08-30T06:00:43;4.10;;;2.20;;
82170;SDS011;71755;48.038;14.346;2023-08-30T06:03:09;5.80;;;4.10;;
82170;SDS011;71755;48.038;14.346;2023-08-30T06:05:36;5.15;;;2.63;;
82170;SDS011;71755;48.038;14.346;2023-08-30T06:08:02;6.18;;;2.95;;
82170;SDS011;71755;48.038;14.346;2023-08-30T06:10:29;5.70;;;2.80;;
82170;SDS011;71755;48.038;14.346;2023-08-30T06:12:55;5.95;;;3.30;;
82170;SDS011;71755;48.038;14.346;2023-08-30T06:15:20;5.75;;;2.88;;
82170;SDS011;71755;48.038;14.346;2023-08-30T06:17:46;6.65;;;2.90;;
82170;SDS011;71755;48.038;14.346;2023-08-30T06:20:12;5.13;;;2.80;;
82170;SDS011;71755;48.038;14.346;2023-08-30T06:22:38;6.07;;;3.17;;
82170;SDS011;71755;48.038;14.346;2023-08-30T06:25:08;4.70;;;2.42;;
82170;SDS011;71755;48.038;14.346;2023-08-30T06:27:41;4.68;;;2.97;;
82170;SDS011;71755;48.038;14.346;2023-08-30T06:30:09;4.85;;;3.38;;
82170;SDS011;71755;48.038;14.346;2023-08-30T06:32:36;5.93;;;2.10;;
82170;SDS011;71755;48.038;14.346;2023-08-30T06:35:02;3.70;;;2.30;;
82170;SDS011;71755;48.038;14.346;2023-08-30T06:37:29;3.78;;;2.55;;
82170;SDS011;71755;48.038;14.346;2023-08-30T06:39:55;4.28;;;2.60;;
82170;SDS011;71755;48.038;14.346;2023-08-30T06:42:21;4.32;;;2.65;;
82170;SDS011;71755;48.038;14.346;2023-08-30T06:44:49;3.88;;;2.20;;
82170;SDS011;71755;48.038;14.346;2023-08-30T06:47:16;6.28;;;3.03;;
82170;SDS011;71755;48.038;14.346;2023-08-30T06:49:42;6.30;;;2.15;;
82170;SDS011;71755;48.038;14.346;2023-08-30T06:52:07;4.32;;;2.00;;
82170;SDS011;71755;48.038;14.346;2023-08-30T06:54:34;3.97;;;2.08;;
82170;SDS011;71755;48.038;14.346;2023-08-30T06:57:01;2.40;;;1.50;;
82170;SDS011;71755;48.038;14.346;2023-08-30T06:59:28;4.28;;;2.25;;
82170;SDS011;71755;48.038;14.346;2023-08-30T07:01:54;3.65;;;2.30;;
82170;SDS011;71755;48.038;14.346;2023-08-30T07:04:20;4.72;;;1.80;;
82170;SDS011;71755;48.038;14.346;2023-08-30T07:06:47;2.97;;;1.90;;
82170;SDS011;71755;48.038;14.346;2023-08-30T07:09:12;7.00;;;2.47;;
82170;SDS011;71755;48.038;14.346;2023-08-30T07:11:41;2.80;;;1.40;;
82170;SDS011;71755;48.038;14.346;2023-08-30T07:14:09;3.50;;;2.10;;
82170;SDS011;71755;48.038;14.346;2023-08-30T07:16:35;4.15;;;1.80;;
82170;SDS011;71755;48.038;14.346;2023-08-30T07:19:01;8.07;;;2.08;;
82170;SDS011;71755;48.038;14.346;2023-08-30T07:21:28;2.60;;;1.90;;
82170;SDS011;71755;48.038;14.346;2023-08-30T07:23:54;2.92;;;1.67;;
82170;SDS011;71755;48.038;14.346;2023-08-30T07:26:20;1.98;;;1.30;;
82170;SDS011;71755;48.038;14.346;2023-08-30T07:28:46;2.92;;;1.73;;
82170;SDS011;71755;48.038;14.346;2023-08-30T07:31:12;3.28;;;1.80;;
82170;SDS011;71755;48.038;14.346;2023-08-30T07:36:10;3.53;;;1.90;;
82170;SDS011;71755;48.038;14.346;2023-08-30T07:38:37;5.13;;;2.10;;
82170;SDS011;71755;48.038;14.346;2023-08-30T07:41:03;2.00;;;1.50;;
82170;SDS011;71755;48.038;14.346;2023-08-30T07:43:29;3.50;;;1.77;;
82170;SDS011;71755;48.038;14.346;2023-08-30T07:45:54;3.40;;;1.85;;
82170;SDS011;71755;48.038;14.346;2023-08-30T07:48:22;3.50;;;1.65;;
82170;SDS011;71755;48.038;14.346;2023-08-30T07:50:48;3.28;;;1.90;;
82170;SDS011;71755;48.038;14.346;2023-08-30T07:53:13;2.03;;;1.38;;
82170;SDS011;71755;48.038;14.346;2023-08-30T07:55:39;3.60;;;1.88;;
82170;SDS011;71755;48.038;14.346;2023-08-30T07:58:05;2.35;;;1.70;;
82170;SDS011;71755;48.038;14.346;2023-08-30T08:00:34;3.17;;;2.05;;
82170;SDS011;71755;48.038;14.346;2023-08-30T08:03:00;3.28;;;1.75;;
82170;SDS011;71755;48.038;14.346;2023-08-30T08:05:26;2.65;;;1.30;;
82170;SDS011;71755;48.038;14.346;2023-08-30T08:07:52;4.07;;;1.60;;
82170;SDS011;71755;48.038;14.346;2023-08-30T08:10:19;3.05;;;1.83;;
82170;SDS011;71755;48.038;14.346;2023-08-30T08:12:45;3.47;;;1.70;;
82170;SDS011;71755;48.038;14.346;2023-08-30T08:15:11;4.10;;;2.13;;
82170;SDS011;71755;48.038;14.346;2023-08-30T08:17:37;4.60;;;2.05;;
82170;SDS011;71755;48.038;14.346;2023-08-30T08:20:04;2.72;;;1.67;;
82170;SDS011;71755;48.038;14.346;2023-08-30T08:22:31;2.20;;;1.67;;
82170;SDS011;71755;48.038;14.346;2023-08-30T08:24:57;2.58;;;1.35;;
82170;SDS011;71755;48.038;14.346;2023-08-30T08:27:26;2.83;;;1.70;;
82170;SDS011;71755;48.038;14.346;2023-08-30T08:29:52;2.40;;;1.67;;
82170;SDS011;71755;48.038;14.346;2023-08-30T08:32:18;3.45;;;1.95;;
82170;SDS011;71755;48.038;14.346;2023-08-30T08:34:44;2.78;;;1.35;;
82170;SDS011;71755;48.038;14.346;2023-08-30T08:37:10;3.15;;;1.80;;
82170;SDS011;71755;48.038;14.346;2023-08-30T08:39:35;3.90;;;2.33;;
82170;SDS011;71755;48.038;14.346;2023-08-30T08:42:01;5.55;;;2.90;;
82170;SDS011;71755;48.038;14.346;2023-08-30T08:44:30;4.20;;;1.75;;
82170;SDS011;71755;48.038;14.346;2023-08-30T08:46:58;4.88;;;1.67;;
82170;SDS011;71755;48.038;14.346;2023-08-30T08:49:26;4.93;;;2.22;;
82170;SDS011;71755;48.038;14.346;2023-08-30T08:51:54;4.07;;;2.20;;
82170;SDS011;71755;48.038;14.346;2023-08-30T08:54:21;2.47;;;1.65;;
82170;SDS011;71755;48.038;14.346;2023-08-30T08:56:48;2.97;;;1.85;;
82170;SDS011;71755;48.038;14.346;2023-08-30T08:59:15;3.42;;;2.28;;
82170;SDS011;71755;48.038;14.346;2023-08-30T09:01:41;3.13;;;1.90;;
82170;SDS011;71755;48.038;14.346;2023-08-30T09:04:10;2.60;;;1.70;;
82170;SDS011;71755;48.038;14.346;2023-08-30T09:06:37;3.67;;;2.00;;
82170;SDS011;71755;48.038;14.346;2023-08-30T09:09:05;3.65;;;1.98;;
82170;SDS011;71755;48.038;14.346;2023-08-30T09:11:31;3.08;;;1.92;;
82170;SDS011;71755;48.038;14.346;2023-08-30T09:13:58;2.05;;;1.55;;
82170;SDS011;71755;48.038;14.346;2023-08-30T09:16:24;4.00;;;2.30;;
82170;SDS011;71755;48.038;14.346;2023-08-30T09:19:03;3.78;;;2.55;;
82170;SDS011;71755;48.038;14.346;2023-08-30T09:21:30;3.13;;;1.60;;
82170;SDS011;71755;48.038;14.346;2023-08-30T09:24:02;3.63;;;1.83;;
82170;SDS011;71755;48.038;14.346;2023-08-30T09:26:30;4.63;;;2.30;;
82170;SDS011;71755;48.038;14.346;2023-08-30T09:29:07;1.60;;;1.40;;
82170;SDS011;71755;48.038;14.346;2023-08-30T09:31:34;5.10;;;2.88;;
82170;SDS011;71755;48.038;14.346;2023-08-30T09:34:01;3.45;;;1.90;;
82170;SDS011;71755;48.038;14.346;2023-08-30T09:36:35;4.85;;;1.85;;
82170;SDS011;71755;48.038;14.346;2023-08-30T09:39:06;4.65;;;1.88;;
82170;SDS011;71755;48.038;14.346;2023-08-30T09:41:35;2.92;;;1.45;;
82170;SDS011;71755;48.038;14.346;2023-08-30T09:44:12;2.58;;;1.83;;
82170;SDS011;71755;48.038;14.346;2023-08-30T09:46:42;4.13;;;1.73;;
82170;SDS011;71755;48.038;14.346;2023-08-30T09:49:25;2.65;;;1.77;;
82170;SDS011;71755;48.038;14.346;2023-08-30T09:51:52;2.05;;;1.60;;
82170;SDS011;71755;48.038;14.346;2023-08-30T09:54:23;2.28;;;1.30;;
82170;SDS011;71755;48.038;14.346;2023-08-30T09:56:50;2.47;;;1.65;;
82170;SDS011;71755;48.038;14.346;2023-08-30T09:59:21;1.75;;;1.58;;
82170;SDS011;71755;48.038;14.346;2023-08-30T10:01:47;3.13;;;1.50;;
82170;SDS011;71755;48.038;14.346;2023-08-30T10:04:13;2.80;;;2.13;;
82170;SDS011;71755;48.038;14.346;2023-08-30T10:06:40;3.03;;;1.55;;
82170;SDS011;71755;48.038;14.346;2023-08-30T10:09:08;4.85;;;1.52;;
82170;SDS011;71755;48.038;14.346;2023-08-30T10:11:35;2.13;;;1.92;;
82170;SDS011;71755;48.038;14.346;2023-08-30T10:14:04;3.33;;;1.80;;
82170;SDS011;71755;48.038;14.346;2023-08-30T10:16:41;3.33;;;1.73;;
82170;SDS011;71755;48.038;14.346;2023-08-30T10:19:16;2.95;;;1.67;;
82170;SDS011;71755;48.038;14.346;2023-08-30T10:22:02;3.33;;;2.08;;
82170;SDS011;71755;48.038;14.346;2023-08-30T10:24:48;3.28;;;1.80;;
82170;SDS011;71755;48.038;14.346;2023-08-30T10:27:16;2.35;;;1.52;;
82170;SDS011;71755;48.038;14.346;2023-08-30T10:29:44;1.95;;;1.75;;
82170;SDS011;71755;48.038;14.346;2023-08-30T10:32:13;2.00;;;1.58;;
82170;SDS011;71755;48.038;14.346;2023-08-30T10:34:39;1.95;;;1.50;;
82170;SDS011;71755;48.038;14.346;2023-08-30T10:37:09;3.50;;;3.03;;
82170;SDS011;71755;48.038;14.346;2023-08-30T10:39:40;2.90;;;1.73;;
82170;SDS011;71755;48.038;14.346;2023-08-30T10:42:14;2.33;;;1.30;;
82170;SDS011;71755;48.038;14.346;2023-08-30T10:44:50;1.92;;;1.20;;
82170;SDS011;71755;48.038;14.346;2023-08-30T10:47:23;3.75;;;2.45;;
82170;SDS011;71755;48.038;14.346;2023-08-30T10:49:55;1.92;;;1.63;;
82170;SDS011;71755;48.038;14.346;2023-08-30T10:52:22;3.13;;;1.70;;
82170;SDS011;71755;48.038;14.346;2023-08-30T10:54:49;2.53;;;1.58;;
82170;SDS011;71755;48.038;14.346;2023-08-30T10:57:20;2.95;;;2.00;;
82170;SDS011;71755;48.038;14.346;2023-08-30T11:02:35;2.25;;;1.45;;
82170;SDS011;71755;48.038;14.346;2023-08-30T11:05:03;2.55;;;1.42;;
82170;SDS011;71755;48.038;14.346;2023-08-30T11:07:32;4.38;;;1.40;;
82170;SDS011;71755;48.038;14.346;2023-08-30T11:09:58;2.42;;;1.90;;
82170;SDS011;71755;48.038;14.346;2023-08-30T11:12:24;2.30;;;1.75;;
82170;SDS011;71755;48.038;14.346;2023-08-30T11:14:53;2.60;;;2.22;;
82170;SDS011;71755;48.038;14.346;2023-08-30T11:17:19;3.97;;;1.85;;
82170;SDS011;71755;48.038;14.346;2023-08-30T11:19:46;4.60;;;3.45;;
82170;SDS011;71755;48.038;14.346;2023-08-30T11:22:15;4.03;;;1.73;;
82170;SDS011;71755;48.038;14.346;2023-08-30T11:24:45;2.70;;;1.50;;
82170;SDS011;71755;48.038;14.346;2023-08-30T11:27:16;2.75;;;1.73;;
82170;SDS011;71755;48.038;14.346;2023-08-30T11:29:43;2.03;;;1.60;;
82170;SDS011;71755;48.038;14.346;2023-08-30T11:32:09;2.58;;;1.52;;
82170;SDS011;71755;48.038;14.346;2023-08-30T11:34:34;1.92;;;1.48;;
82170;SDS011;71755;48.038;14.346;2023-08-30T11:37:00;1.85;;;1.38;;
82170;SDS011;71755;48.038;14.346;2023-08-30T11:39:28;2.15;;;1.77;;
82170;SDS011;71755;48.038;14.346;2023-08-30T11:41:56;2.83;;;1.60;;
82170;SDS011;71755;48.038;14.346;2023-08-30T11:44:23;2.35;;;1.58;;
82170;SDS011;71755;48.038;14.346;2023-08-30T11:46:57;4.07;;;1.38;;
82170;SDS011;71755;48.038;14.346;2023-08-30T11:49:26;4.03;;;2.63;;
82170;SDS011;71755;48.038;14.346;2023-08-30T11:51:55;2.10;;;1.60;;
82170;SDS011;71755;48.038;14.346;2023-08-30T11:54:23;2.53;;;1.38;;
82170;SDS011;71755;48.038;14.346;2023-08-30T11:56:50;2.55;;;1.40;;
82170;SDS011;71755;48.038;14.346;2023-08-30T11:59:20;1.98;;;1.38;;
82170;SDS011;71755;48.038;14.346;2023-08-30T12:01:51;3.70;;;1.58;;
82170;SDS011;71755;48.038;14.346;2023-08-30T12:04:18;3.47;;;0.80;;
82170;SDS011;71755;48.038;14.346;2023-08-30T12:06:50;2.13;;;1.40;;
82170;SDS011;71755;48.038;14.346;2023-08-30T12:09:19;2.97;;;1.30;;
82170;SDS011;71755;48.038;14.346;2023-08-30T12:11:48;1.85;;;1.15;;
82170;SDS011;71755;48.038;14.346;2023-08-30T12:14:14;2.28;;;1.33;;
82170;SDS011;71755;48.038;14.346;2023-08-30T12:16:42;2.28;;;1.67;;
82170;SDS011;71755;48.038;14.346;2023-08-30T12:19:10;2.63;;;1.20;;
82170;SDS011;71755;48.038;14.346;2023-08-30T12:21:41;1.83;;;1.20;;
82170;SDS011;71755;48.038;14.346;2023-08-30T12:24:09;3.75;;;1.55;;
82170;SDS011;71755;48.038;14.346;2023-08-30T12:26:36;3.97;;;1.60;;
82170;SDS011;71755;48.038;14.346;2023-08-30T12:29:04;3.05;;;1.63;;
82170;SDS011;71755;48.038;14.346;2023-08-30T12:31:32;4.38;;;1.92;;
82170;SDS011;71755;48.038;14.346;2023-08-30T12:33:58;3.58;;;2.05;;
82170;SDS011;71755;48.038;14.346;2023-08-30T12:36:24;2.50;;;1.80;;
82170;SDS011;71755;48.038;14.346;2023-08-30T12:38:50;3.53;;;2.00;;
82170;SDS011;71755;48.038;14.346;2023-08-30T12:41:17;2.92;;;1.80;;
82170;SDS011;71755;48.038;14.346;2023-08-30T12:43:43;2.70;;;1.58;;
82170;SDS011;71755;48.038;14.346;2023-08-30T12:46:09;3.00;;;2.05;;
82170;SDS011;71755;48.038;14.346;2023-08-30T12:48:35;2.70;;;1.90;;
82170;SDS011;71755;48.038;14.346;2023-08-30T12:51:01;3.55;;;2.05;;
82170;SDS011;71755;48.038;14.346;2023-08-30T12:53:28;5.22;;;2.53;;
82170;SDS011;71755;48.038;14.346;2023-08-30T12:55:54;3.25;;;2.45;;
82170;SDS011;71755;48.038;14.346;2023-08-30T12:58:21;3.70;;;2.30;;
82170;SDS011;71755;48.038;14.346;2023-08-30T13:00:50;4.07;;;1.73;;
82170;SDS011;71755;48.038;14.346;2023-08-30T13:03:15;1.60;;;1.40;;
82170;SDS011;71755;48.038;14.346;2023-08-30T13:05:41;1.98;;;1.45;;
82170;SDS011;71755;48.038;14.346;2023-08-30T13:08:07;3.05;;;1.58;;
82170;SDS011;71755;48.038;14.346;2023-08-30T13:10:33;2.60;;;1.63;;
82170;SDS011;71755;48.038;14.346;2023-08-30T13:13:00;2.45;;;1.58;;
82170;SDS011;71755;48.038;14.346;2023-08-30T13:15:26;2.10;;;1.23;;
82170;SDS011;71755;48.038;14.346;2023-08-30T13:17:52;2.58;;;1.35;;
82170;SDS011;71755;48.038;14.346;2023-08-30T13:20:18;2.22;;;1.70;;
82170;SDS011;71755;48.038;14.346;2023-08-30T13:22:45;3.85;;;1.73;;
82170;SDS011;71755;48.038;14.346;2023-08-30T13:25:12;2.75;;;1.67;;
82170;SDS011;71755;48.038;14.346;2023-08-30T13:27:38;2.13;;;1.75;;
82170;SDS011;71755;48.038;14.346;2023-08-30T13:30:04;3.20;;;1.60;;
82170;SDS011;71755;48.038;14.346;2023-08-30T13:32:31;3.22;;;2.08;;
82170;SDS011;71755;48.038;14.346;2023-08-30T13:34:57;3.28;;;2.45;;
82170;SDS011;71755;48.038;14.346;2023-08-30T13:37:23;2.45;;;1.80;;
82170;SDS011;71755;48.038;14.346;2023-08-30T13:39:49;2.05;;;1.60;;
82170;SDS011;71755;48.038;14.346;2023-08-30T13:42:17;2.17;;;1.60;;
82170;SDS011;71755;48.038;14.346;2023-08-30T13:44:44;1.77;;;1.63;;
82170;SDS011;71755;48.038;14.346;2023-08-30T13:47:10;2.65;;;1.60;;
82170;SDS011;71755;48.038;14.346;2023-08-30T13:49:37;4.50;;;3.25;;
82170;SDS011;71755;48.038;14.346;2023-08-30T13:52:03;2.95;;;1.60;;
82170;SDS011;71755;48.038;14.346;2023-08-30T13:54:29;2.33;;;1.70;;
82170;SDS011;71755;48.038;14.346;2023-08-30T13:56:57;3.38;;;1.80;;
82170;SDS011;71755;48.038;14.346;2023-08-30T13:59:23;2.65;;;1.38;;
82170;SDS011;71755;48.038;14.346;2023-08-30T14:01:50;1.13;;;1.00;;
82170;SDS011;71755;48.038;14.346;2023-08-30T14:04:16;2.45;;;1.73;;
82170;SDS011;71755;48.038;14.346;2023-08-30T14:06:43;2.30;;;1.35;;
82170;SDS011;71755;48.038;14.346;2023-08-30T14:09:08;1.90;;;1.50;;
82170;SDS011;71755;48.038;14.346;2023-08-30T14:11:35;2.70;;;1.42;;
82170;SDS011;71755;48.038;14.346;2023-08-30T14:14:03;2.38;;;1.30;;
82170;SDS011;71755;48.038;14.346;2023-08-30T14:16:29;1.75;;;1.20;;
82170;SDS011;71755;48.038;14.346;2023-08-30T14:18:55;1.92;;;1.23;;
82170;SDS011;71755;48.038;14.346;2023-08-30T14:21:25;2.90;;;1.40;;
82170;SDS011;71755;48.038;14.346;2023-08-30T14:23:53;1.35;;;1.10;;
82170;SDS011;71755;48.038;14.346;2023-08-30T14:26:19;2.10;;;1.63;;
82170;SDS011;71755;48.038;14.346;2023-08-30T14:28:45;1.60;;;1.27;;
82170;SDS011;71755;48.038;14.346;2023-08-30T14:31:11;1.65;;;1.20;;
82170;SDS011;71755;48.038;14.346;2023-08-30T14:33:42;1.73;;;1.52;;
82170;SDS011;71755;48.038;14.346;2023-08-30T14:36:12;2.60;;;2.10;;
82170;SDS011;71755;48.038;14.346;2023-08-30T14:38:39;2.38;;;1.65;;
82170;SDS011;71755;48.038;14.346;2023-08-30T14:41:06;2.13;;;1.33;;
82170;SDS011;71755;48.038;14.346;2023-08-30T14:43:33;1.80;;;1.20;;
82170;SDS011;71755;48.038;14.346;2023-08-30T14:46:00;1.45;;;1.20;;
82170;SDS011;71755;48.038;14.346;2023-08-30T14:48:28;1.95;;;1.48;;